sensor_id;sensor_type;location;lat;lon;timestamp;pressure;altitude;pressure_sealevel;temperature
15144;BMP180;7672;50.834;6.286;2023-04-15T00:01:50;98837.72;;;10.68
15144;BMP180;7672;50.834;6.286;2023-04-15T00:04:17;98841.97;;;10.64
15144;BMP180;7672;50.834;6.286;2023-04-15T00:06:50;98838.59;;;10.64
15144;BMP180;7672;50.834;6.286;2023-04-15T00:09:20;98836.94;;;10.61
15144;BMP180;7672;50.834;6.286;2023-04-15T00:11:47;98828.53;;;10.58
15144;BMP180;7672;50.834;6.286;2023-04-15T00:14:13;98826.03;;;10.56
15144;BMP180;7672;50.834;6.286;2023-04-15T00:16:41;98830.28;;;10.53
15144;BMP180;7672;50.834;6.286;2023-04-15T00:19:07;98826.09;;;10.50
15144;BMP180;7672;50.834;6.286;2023-04-15T00:21:34;98826.97;;;10.48
15144;BMP180;7672;50.834;6.286;2023-04-15T00:24:01;98830.31;;;10.47
15144;BMP180;7672;50.834;6.286;2023-04-15T00:26:28;98826.16;;;10.43
15144;BMP180;7672;50.834;6.286;2023-04-15T00:28:54;98827.81;;;10.46
15144;BMP180;7672;50.834;6.286;2023-04-15T00:31:21;98827.88;;;10.40
15144;BMP180;7672;50.834;6.286;2023-04-15T00:33:48;98831.22;;;10.42
15144;BMP180;7672;50.834;6.286;2023-04-15T00:36:15;98827.88;;;10.40
15144;BMP180;7672;50.834;6.286;2023-04-15T00:38:42;98824.53;;;10.38
15144;BMP180;7672;50.834;6.286;2023-04-15T00:41:09;98823.69;;;10.37
15144;BMP180;7672;50.834;6.286;2023-04-15T00:43:36;98829.59;;;10.35
15144;BMP180;7672;50.834;6.286;2023-04-15T00:46:04;98828.78;;;10.33
15144;BMP180;7672;50.834;6.286;2023-04-15T00:48:32;98830.47;;;10.31
15144;BMP180;7672;50.834;6.286;2023-04-15T00:50:59;98829.66;;;10.29
15144;BMP180;7672;50.834;6.286;2023-04-15T00:53:25;98820.44;;;10.26
15144;BMP180;7672;50.834;6.286;2023-04-15T00:55:53;98822.09;;;10.26
15144;BMP180;7672;50.834;6.286;2023-04-15T00:58:20;98822.13;;;10.24
15144;BMP180;7672;50.834;6.286;2023-04-15T01:00:47;98820.44;;;10.25
15144;BMP180;7672;50.834;6.286;2023-04-15T01:03:14;98824.63;;;10.24
15144;BMP180;7672;50.834;6.286;2023-04-15T01:05:41;98828.03;;;10.25
15144;BMP180;7672;50.834;6.286;2023-04-15T01:08:08;98828.88;;;10.22
15144;BMP180;7672;50.834;6.286;2023-04-15T01:10:35;98815.41;;;10.20
15144;BMP180;7672;50.834;6.286;2023-04-15T01:13:03;98822.16;;;10.20
15144;BMP180;7672;50.834;6.286;2023-04-15T01:15:30;98821.31;;;10.19
15144;BMP180;7672;50.834;6.286;2023-04-15T01:18:01;98824.69;;;10.20
15144;BMP180;7672;50.834;6.286;2023-04-15T01:20:28;98816.28;;;10.18
15144;BMP180;7672;50.834;6.286;2023-04-15T01:22:55;98817.97;;;10.17
15144;BMP180;7672;50.834;6.286;2023-04-15T01:25:33;98820.50;;;10.17
15144;BMP180;7672;50.834;6.286;2023-04-15T01:28:00;98818.81;;;10.16
15144;BMP180;7672;50.834;6.286;2023-04-15T01:30:27;98813.78;;;10.16
15144;BMP180;7672;50.834;6.286;2023-04-15T01:32:54;98814.59;;;10.17
15144;BMP180;7672;50.834;6.286;2023-04-15T01:35:21;98813.78;;;10.16
15144;BMP180;7672;50.834;6.286;2023-04-15T01:37:49;98814.63;;;10.15
15144;BMP180;7672;50.834;6.286;2023-04-15T01:40:16;98809.59;;;10.14
15144;BMP180;7672;50.834;6.286;2023-04-15T01:42:43;98806.25;;;10.13
15144;BMP180;7672;50.834;6.286;2023-04-15T01:45:10;98804.56;;;10.12
15144;BMP180;7672;50.834;6.286;2023-04-15T01:47:37;98809.59;;;10.12
15144;BMP180;7672;50.834;6.286;2023-04-15T01:50:05;98811.28;;;10.12
15144;BMP180;7672;50.834;6.286;2023-04-15T01:52:32;98807.09;;;10.12
15144;BMP180;7672;50.834;6.286;2023-04-15T01:54:59;98810.44;;;10.11
15144;BMP180;7672;50.834;6.286;2023-04-15T01:57:26;98803.69;;;10.12
15144;BMP180;7672;50.834;6.286;2023-04-15T01:59:52;98806.22;;;10.12
15144;BMP180;7672;50.834;6.286;2023-04-15T02:02:19;98834.00;;;10.12
15144;BMP180;7672;50.834;6.286;2023-04-15T02:04:46;98827.31;;;10.06
15144;BMP180;7672;50.834;6.286;2023-04-15T02:07:13;98826.50;;;10.01
15144;BMP180;7672;50.834;6.286;2023-04-15T02:09:40;98829.94;;;9.96
15144;BMP180;7672;50.834;6.286;2023-04-15T02:12:06;98832.44;;;9.94
15144;BMP180;7672;50.834;6.286;2023-04-15T02:14:33;98827.44;;;9.87
15144;BMP180;7672;50.834;6.286;2023-04-15T02:17:00;98823.25;;;9.83
15144;BMP180;7672;50.834;6.286;2023-04-15T02:19:34;98823.31;;;9.76
15144;BMP180;7672;50.834;6.286;2023-04-15T02:22:00;98825.88;;;9.70
15144;BMP180;7672;50.834;6.286;2023-04-15T02:24:30;98834.31;;;9.64
15144;BMP180;7672;50.834;6.286;2023-04-15T02:26:57;98836.03;;;9.59
15144;BMP180;7672;50.834;6.286;2023-04-15T02:29:23;98832.69;;;9.54
15144;BMP180;7672;50.834;6.286;2023-04-15T02:31:50;98834.41;;;9.48
15144;BMP180;7672;50.834;6.286;2023-04-15T02:34:17;98825.19;;;9.44
15144;BMP180;7672;50.834;6.286;2023-04-15T02:36:44;98825.16;;;9.42
15144;BMP180;7672;50.834;6.286;2023-04-15T02:39:13;98829.38;;;9.42
15144;BMP180;7672;50.834;6.286;2023-04-15T02:41:42;98826.88;;;9.40
15144;BMP180;7672;50.834;6.286;2023-04-15T02:44:09;98838.63;;;9.43
15144;BMP180;7672;50.834;6.286;2023-04-15T02:46:38;98835.25;;;9.42
15144;BMP180;7672;50.834;6.286;2023-04-15T02:49:06;98832.72;;;9.42
15144;BMP180;7672;50.834;6.286;2023-04-15T02:51:34;98834.44;;;9.42
15144;BMP180;7672;50.834;6.286;2023-04-15T02:54:01;98840.31;;;9.42
15144;BMP180;7672;50.834;6.286;2023-04-15T02:56:27;98844.50;;;9.42
15144;BMP180;7672;50.834;6.286;2023-04-15T02:58:55;98847.06;;;9.39
15144;BMP180;7672;50.834;6.286;2023-04-15T03:01:22;98845.38;;;9.38
15144;BMP180;7672;50.834;6.286;2023-04-15T03:03:49;98834.47;;;9.34
15144;BMP180;7672;50.834;6.286;2023-04-15T03:06:16;98840.34;;;9.33
15144;BMP180;7672;50.834;6.286;2023-04-15T03:08:43;98842.88;;;9.30
15144;BMP180;7672;50.834;6.286;2023-04-15T03:11:10;98848.78;;;9.29
15144;BMP180;7672;50.834;6.286;2023-04-15T03:13:38;98849.63;;;9.28
15144;BMP180;7672;50.834;6.286;2023-04-15T03:16:07;98847.97;;;9.27
15144;BMP180;7672;50.834;6.286;2023-04-15T03:18:34;98847.13;;;9.25
15144;BMP180;7672;50.834;6.286;2023-04-15T03:21:01;98847.94;;;9.24
15144;BMP180;7672;50.834;6.286;2023-04-15T03:23:30;98852.16;;;9.20
15144;BMP180;7672;50.834;6.286;2023-04-15T03:26:01;98844.63;;;9.15
15144;BMP180;7672;50.834;6.286;2023-04-15T03:28:28;98849.69;;;9.12
15144;BMP180;7672;50.834;6.286;2023-04-15T03:30:55;98847.19;;;9.08
15144;BMP180;7672;50.834;6.286;2023-04-15T03:33:22;98848.88;;;9.03
15144;BMP180;7672;50.834;6.286;2023-04-15T03:35:50;98857.28;;;9.00
15144;BMP180;7672;50.834;6.286;2023-04-15T03:38:17;98848.88;;;8.98
15144;BMP180;7672;50.834;6.286;2023-04-15T03:40:45;98851.44;;;9.00
15144;BMP180;7672;50.834;6.286;2023-04-15T03:43:12;98853.94;;;8.94
15144;BMP180;7672;50.834;6.286;2023-04-15T03:45:39;98853.13;;;8.89
15144;BMP180;7672;50.834;6.286;2023-04-15T03:48:06;98852.31;;;8.82
15144;BMP180;7672;50.834;6.286;2023-04-15T03:50:44;98852.31;;;8.73
15144;BMP180;7672;50.834;6.286;2023-04-15T03:53:11;98850.66;;;8.65
15144;BMP180;7672;50.834;6.286;2023-04-15T03:55:38;98859.06;;;8.58
15144;BMP180;7672;50.834;6.286;2023-04-15T03:58:05;98855.72;;;8.56
15144;BMP180;7672;50.834;6.286;2023-04-15T04:00:32;98858.25;;;8.52
15144;BMP180;7672;50.834;6.286;2023-04-15T04:02:59;98858.22;;;8.50
15144;BMP180;7672;50.834;6.286;2023-04-15T04:05:26;98854.91;;;8.47
15144;BMP180;7672;50.834;6.286;2023-04-15T04:07:53;98859.91;;;8.45
15144;BMP180;7672;50.834;6.286;2023-04-15T04:10:19;98860.75;;;8.41
15144;BMP180;7672;50.834;6.286;2023-04-15T04:12:46;98860.75;;;8.43
15144;BMP180;7672;50.834;6.286;2023-04-15T04:15:13;98859.09;;;8.43
15144;BMP180;7672;50.834;6.286;2023-04-15T04:17:40;98870.84;;;8.44
15144;BMP180;7672;50.834;6.286;2023-04-15T04:20:07;98864.13;;;8.45
15144;BMP180;7672;50.834;6.286;2023-04-15T04:22:38;98862.41;;;8.45
15144;BMP180;7672;50.834;6.286;2023-04-15T04:25:06;98866.63;;;8.46
15144;BMP180;7672;50.834;6.286;2023-04-15T04:27:34;98871.66;;;8.48
15144;BMP180;7672;50.834;6.286;2023-04-15T04:30:01;98876.72;;;8.49
15144;BMP180;7672;50.834;6.286;2023-04-15T04:32:27;98871.66;;;8.52
15144;BMP180;7672;50.834;6.286;2023-04-15T04:34:54;98873.31;;;8.58
15144;BMP180;7672;50.834;6.286;2023-04-15T04:37:21;98878.38;;;8.63
15144;BMP180;7672;50.834;6.286;2023-04-15T04:39:49;98878.34;;;8.66
15144;BMP180;7672;50.834;6.286;2023-04-15T04:42:16;98876.66;;;8.71
15144;BMP180;7672;50.834;6.286;2023-04-15T04:44:42;98883.41;;;8.77
15144;BMP180;7672;50.834;6.286;2023-04-15T04:47:09;98878.34;;;8.80
15144;BMP180;7672;50.834;6.286;2023-04-15T04:49:36;98892.59;;;8.84
15144;BMP180;7672;50.834;6.286;2023-04-15T04:52:03;98895.13;;;8.85
15144;BMP180;7672;50.834;6.286;2023-04-15T04:54:30;98898.50;;;8.86
15144;BMP180;7672;50.834;6.286;2023-04-15T04:56:57;98909.41;;;8.85
15144;BMP180;7672;50.834;6.286;2023-04-15T04:59:24;98912.75;;;8.84
15144;BMP180;7672;50.834;6.286;2023-04-15T05:01:51;98906.03;;;8.83
15144;BMP180;7672;50.834;6.286;2023-04-15T05:04:18;98911.94;;;8.82
15144;BMP180;7672;50.834;6.286;2023-04-15T05:06:45;98914.44;;;8.80
15144;BMP180;7672;50.834;6.286;2023-04-15T05:09:12;98922.03;;;8.82
15144;BMP180;7672;50.834;6.286;2023-04-15T05:11:38;98923.66;;;8.83
15144;BMP180;7672;50.834;6.286;2023-04-15T05:14:05;98924.53;;;8.85
15144;BMP180;7672;50.834;6.286;2023-04-15T05:16:32;98932.94;;;8.88
15144;BMP180;7672;50.834;6.286;2023-04-15T05:18:59;98934.59;;;8.92
15144;BMP180;7672;50.834;6.286;2023-04-15T05:21:26;98937.94;;;8.97
15144;BMP180;7672;50.834;6.286;2023-04-15T05:23:53;98946.31;;;9.05
15144;BMP180;7672;50.834;6.286;2023-04-15T05:26:20;98947.16;;;9.13
15144;BMP180;7672;50.834;6.286;2023-04-15T05:28:47;98948.00;;;9.21
15144;BMP180;7672;50.834;6.286;2023-04-15T05:31:15;98944.59;;;9.28
15144;BMP180;7672;50.834;6.286;2023-04-15T05:33:42;98945.41;;;9.39
15144;BMP180;7672;50.834;6.286;2023-04-15T05:36:09;98945.34;;;9.52
15144;BMP180;7672;50.834;6.286;2023-04-15T05:38:36;98957.91;;;9.66
15144;BMP180;7672;50.834;6.286;2023-04-15T05:41:03;98962.91;;;9.82
15144;BMP180;7672;50.834;6.286;2023-04-15T05:43:29;98961.16;;;9.99
15144;BMP180;7672;50.834;6.286;2023-04-15T05:45:57;98967.75;;;10.21
15144;BMP180;7672;50.834;6.286;2023-04-15T05:48:23;98966.81;;;10.41
15144;BMP180;7672;50.834;6.286;2023-04-15T05:50:50;98961.53;;;10.65
15144;BMP180;7672;50.834;6.286;2023-04-15T05:53:17;98966.41;;;10.89
15144;BMP180;7672;50.834;6.286;2023-04-15T05:55:43;98972.91;;;11.13
15144;BMP180;7672;50.834;6.286;2023-04-15T05:58:10;98981.09;;;11.38
15144;BMP180;7672;50.834;6.286;2023-04-15T06:00:38;98979.16;;;11.62
15144;BMP180;7672;50.834;6.286;2023-04-15T06:03:05;98981.47;;;11.83
15144;BMP180;7672;50.834;6.286;2023-04-15T06:05:33;98982.06;;;12.03
15144;BMP180;7672;50.834;6.286;2023-04-15T06:08:00;98991.09;;;12.20
15144;BMP180;7672;50.834;6.286;2023-04-15T06:10:27;99001.00;;;12.35
15144;BMP180;7672;50.834;6.286;2023-04-15T06:12:54;98999.19;;;12.46
15144;BMP180;7672;50.834;6.286;2023-04-15T06:15:21;99006.56;;;12.59
15144;BMP180;7672;50.834;6.286;2023-04-15T06:17:48;99007.22;;;12.72
15144;BMP180;7672;50.834;6.286;2023-04-15T06:20:15;99009.56;;;12.84
15144;BMP180;7672;50.834;6.286;2023-04-15T06:22:42;99008.56;;;12.97
15144;BMP180;7672;50.834;6.286;2023-04-15T06:25:10;99010.03;;;13.09
15144;BMP180;7672;50.834;6.286;2023-04-15T06:27:36;99019.91;;;13.24
15144;BMP180;7672;50.834;6.286;2023-04-15T06:30:04;99019.63;;;13.41
15144;BMP180;7672;50.834;6.286;2023-04-15T06:32:32;99014.25;;;13.57
15144;BMP180;7672;50.834;6.286;2023-04-15T06:34:58;99026.50;;;13.79
15144;BMP180;7672;50.834;6.286;2023-04-15T06:37:25;99034.50;;;14.02
15144;BMP180;7672;50.834;6.286;2023-04-15T06:39:52;99027.25;;;14.25
15144;BMP180;7672;50.834;6.286;2023-04-15T06:42:19;99031.78;;;14.50
15144;BMP180;7672;50.834;6.286;2023-04-15T06:44:45;99030.34;;;14.77
15144;BMP180;7672;50.834;6.286;2023-04-15T06:47:12;99039.03;;;15.03
15144;BMP180;7672;50.834;6.286;2023-04-15T06:49:40;99045.16;;;15.31
15144;BMP180;7672;50.834;6.286;2023-04-15T06:52:09;99047.72;;;15.62
15144;BMP180;7672;50.834;6.286;2023-04-15T06:54:36;99051.75;;;16.01
15144;BMP180;7672;50.834;6.286;2023-04-15T06:57:03;99055.47;;;16.49
15144;BMP180;7672;50.834;6.286;2023-04-15T06:59:30;99053.13;;;16.97
15144;BMP180;7672;50.834;6.286;2023-04-15T07:01:57;99049.41;;;17.57
15144;BMP180;7672;50.834;6.286;2023-04-15T07:04:24;99053.28;;;18.17
15144;BMP180;7672;50.834;6.286;2023-04-15T07:06:51;99062.97;;;18.75
15144;BMP180;7672;50.834;6.286;2023-04-15T07:09:17;99053.41;;;19.23
15144;BMP180;7672;50.834;6.286;2023-04-15T07:11:45;99065.25;;;19.66
15144;BMP180;7672;50.834;6.286;2023-04-15T07:14:12;99075.41;;;20.07
15144;BMP180;7672;50.834;6.286;2023-04-15T07:16:38;99075.53;;;20.43
15144;BMP180;7672;50.834;6.286;2023-04-15T07:19:05;99081.28;;;20.66
15144;BMP180;7672;50.834;6.286;2023-04-15T07:21:32;99082.94;;;20.67
15144;BMP180;7672;50.834;6.286;2023-04-15T07:23:59;99080.38;;;20.48
15144;BMP180;7672;50.834;6.286;2023-04-15T07:26:26;99090.78;;;20.27
15144;BMP180;7672;50.834;6.286;2023-04-15T07:28:52;99099.06;;;20.14
15144;BMP180;7672;50.834;6.286;2023-04-15T07:31:19;99094.91;;;20.11
15144;BMP180;7672;50.834;6.286;2023-04-15T07:33:46;99103.03;;;20.21
15144;BMP180;7672;50.834;6.286;2023-04-15T07:36:13;99108.34;;;20.36
15144;BMP180;7672;50.834;6.286;2023-04-15T07:38:40;99105.63;;;20.57
15144;BMP180;7672;50.834;6.286;2023-04-15T07:41:08;99114.28;;;20.75
15144;BMP180;7672;50.834;6.286;2023-04-15T07:43:35;99122.84;;;20.92
15144;BMP180;7672;50.834;6.286;2023-04-15T07:46:01;99123.66;;;21.11
15144;BMP180;7672;50.834;6.286;2023-04-15T07:48:28;99125.44;;;21.27
15144;BMP180;7672;50.834;6.286;2023-04-15T07:50:55;99131.53;;;21.43
15144;BMP180;7672;50.834;6.286;2023-04-15T07:53:21;99129.78;;;21.62
15144;BMP180;7672;50.834;6.286;2023-04-15T07:55:48;99142.78;;;21.76
15144;BMP180;7672;50.834;6.286;2023-04-15T07:58:15;99143.06;;;21.87
15144;BMP180;7672;50.834;6.286;2023-04-15T08:00:42;99143.06;;;22.04
15144;BMP180;7672;50.834;6.286;2023-04-15T08:03:10;99150.69;;;22.39
15144;BMP180;7672;50.834;6.286;2023-04-15T08:05:37;99145.28;;;22.91
15144;BMP180;7672;50.834;6.286;2023-04-15T08:08:04;99153.78;;;23.68
15144;BMP180;7672;50.834;6.286;2023-04-15T08:10:31;99162.19;;;24.44
15144;BMP180;7672;50.834;6.286;2023-04-15T08:12:57;99155.88;;;24.90
15144;BMP180;7672;50.834;6.286;2023-04-15T08:15:25;99166.59;;;25.12
15144;BMP180;7672;50.834;6.286;2023-04-15T08:17:52;99159.63;;;25.26
15144;BMP180;7672;50.834;6.286;2023-04-15T08:20:18;99163.72;;;25.43
15144;BMP180;7672;50.834;6.286;2023-04-15T08:22:46;99161.41;;;25.64
15144;BMP180;7672;50.834;6.286;2023-04-15T08:25:17;99162.41;;;25.88
15144;BMP180;7672;50.834;6.286;2023-04-15T08:27:45;99165.03;;;26.01
15144;BMP180;7672;50.834;6.286;2023-04-15T08:30:12;99163.56;;;26.09
15144;BMP180;7672;50.834;6.286;2023-04-15T08:32:41;99170.84;;;26.17
15144;BMP180;7672;50.834;6.286;2023-04-15T08:35:08;99164.63;;;26.19
15144;BMP180;7672;50.834;6.286;2023-04-15T08:37:35;99174.16;;;26.18
15144;BMP180;7672;50.834;6.286;2023-04-15T08:40:03;99176.97;;;26.16
15144;BMP180;7672;50.834;6.286;2023-04-15T08:42:36;99175.09;;;26.17
15144;BMP180;7672;50.834;6.286;2023-04-15T08:45:09;99179.66;;;26.26
15144;BMP180;7672;50.834;6.286;2023-04-15T08:47:39;99191.41;;;26.44
15144;BMP180;7672;50.834;6.286;2023-04-15T08:50:08;99195.53;;;26.59
15144;BMP180;7672;50.834;6.286;2023-04-15T08:52:36;99188.09;;;26.42
15144;BMP180;7672;50.834;6.286;2023-04-15T08:55:04;99195.00;;;26.17
15144;BMP180;7672;50.834;6.286;2023-04-15T08:57:32;99199.22;;;26.06
15144;BMP180;7672;50.834;6.286;2023-04-15T09:00:02;99202.13;;;26.14
15144;BMP180;7672;50.834;6.286;2023-04-15T09:02:31;99198.41;;;26.30
15144;BMP180;7672;50.834;6.286;2023-04-15T09:04:58;99210.69;;;26.53
15144;BMP180;7672;50.834;6.286;2023-04-15T09:07:25;99209.66;;;26.68
15144;BMP180;7672;50.834;6.286;2023-04-15T09:09:52;99211.50;;;26.78
15144;BMP180;7672;50.834;6.286;2023-04-15T09:12:19;99215.00;;;26.89
15144;BMP180;7672;50.834;6.286;2023-04-15T09:14:47;99220.22;;;27.02
15144;BMP180;7672;50.834;6.286;2023-04-15T09:17:19;99223.03;;;26.99
15144;BMP180;7672;50.834;6.286;2023-04-15T09:20:10;99226.81;;;26.93
15144;BMP180;7672;50.834;6.286;2023-04-15T09:22:40;99234.72;;;26.92
15144;BMP180;7672;50.834;6.286;2023-04-15T09:28:01;99239.81;;;26.81
15144;BMP180;7672;50.834;6.286;2023-04-15T09:30:28;99242.91;;;26.86
15144;BMP180;7672;50.834;6.286;2023-04-15T09:33:01;99247.09;;;27.01
15144;BMP180;7672;50.834;6.286;2023-04-15T09:35:28;99248.38;;;27.19
15144;BMP180;7672;50.834;6.286;2023-04-15T09:38:07;99250.66;;;27.36
15144;BMP180;7672;50.834;6.286;2023-04-15T09:40:39;99251.88;;;27.43
15144;BMP180;7672;50.834;6.286;2023-04-15T09:43:08;99254.16;;;27.47
15144;BMP180;7672;50.834;6.286;2023-04-15T09:45:46;99253.09;;;27.49
15144;BMP180;7672;50.834;6.286;2023-04-15T09:48:22;99261.34;;;27.54
15144;BMP180;7672;50.834;6.286;2023-04-15T09:50:50;99276.53;;;27.60
15144;BMP180;7672;50.834;6.286;2023-04-15T09:53:21;99266.47;;;27.56
15144;BMP180;7672;50.834;6.286;2023-04-15T09:55:52;99268.69;;;27.49
15144;BMP180;7672;50.834;6.286;2023-04-15T09:58:32;99271.66;;;27.56
15144;BMP180;7672;50.834;6.286;2023-04-15T10:01:03;99276.13;;;27.66
15144;BMP180;7672;50.834;6.286;2023-04-15T10:03:34;99269.59;;;27.61
15144;BMP180;7672;50.834;6.286;2023-04-15T10:06:04;99276.66;;;27.46
15144;BMP180;7672;50.834;6.286;2023-04-15T10:08:33;99280.16;;;27.22
15144;BMP180;7672;50.834;6.286;2023-04-15T10:11:01;99282.03;;;26.83
15144;BMP180;7672;50.834;6.286;2023-04-15T10:13:30;99280.53;;;26.42
15144;BMP180;7672;50.834;6.286;2023-04-15T10:16:15;99275.63;;;25.99
15144;BMP180;7672;50.834;6.286;2023-04-15T10:18:47;99284.91;;;25.62
15144;BMP180;7672;50.834;6.286;2023-04-15T10:21:18;99293.47;;;25.23
15144;BMP180;7672;50.834;6.286;2023-04-15T10:23:45;99298.59;;;24.81
15144;BMP180;7672;50.834;6.286;2023-04-15T10:26:15;99289.25;;;24.35
15144;BMP180;7672;50.834;6.286;2023-04-15T10:28:46;99290.97;;;23.92
15144;BMP180;7672;50.834;6.286;2023-04-15T10:31:14;99292.25;;;23.53
15144;BMP180;7672;50.834;6.286;2023-04-15T10:33:43;99296.91;;;23.15
15144;BMP180;7672;50.834;6.286;2023-04-15T10:36:12;99310.59;;;22.84
15144;BMP180;7672;50.834;6.286;2023-04-15T10:38:41;99303.28;;;22.59
15144;BMP180;7672;50.834;6.286;2023-04-15T10:41:26;99312.22;;;22.36
15144;BMP180;7672;50.834;6.286;2023-04-15T10:44:01;99301.28;;;22.14
15144;BMP180;7672;50.834;6.286;2023-04-15T10:46:41;99317.56;;;21.96
15144;BMP180;7672;50.834;6.286;2023-04-15T10:49:16;99315.03;;;21.77
15144;BMP180;7672;50.834;6.286;2023-04-15T10:51:57;99321.59;;;21.66
15144;BMP180;7672;50.834;6.286;2023-04-15T10:59:36;99334.19;;;21.54
15144;BMP180;7672;50.834;6.286;2023-04-15T11:02:07;99332.25;;;21.39
15144;BMP180;7672;50.834;6.286;2023-04-15T11:04:56;99334.75;;;21.22
15144;BMP180;7672;50.834;6.286;2023-04-15T11:12:58;99338.38;;;21.18
15144;BMP180;7672;50.834;6.286;2023-04-15T11:20:36;99348.22;;;22.19
15144;BMP180;7672;50.834;6.286;2023-04-15T11:23:04;99347.28;;;22.55
15144;BMP180;7672;50.834;6.286;2023-04-15T11:25:41;99345.25;;;22.78
15144;BMP180;7672;50.834;6.286;2023-04-15T11:28:11;99352.72;;;22.83
15144;BMP180;7672;50.834;6.286;2023-04-15T11:30:41;99355.03;;;22.72
15144;BMP180;7672;50.834;6.286;2023-04-15T11:33:11;99356.38;;;22.62
15144;BMP180;7672;50.834;6.286;2023-04-15T11:35:41;99357.81;;;22.50
15144;BMP180;7672;50.834;6.286;2023-04-15T11:38:11;99368.41;;;22.44
15144;BMP180;7672;50.834;6.286;2023-04-15T11:40:39;99366.06;;;22.40
15144;BMP180;7672;50.834;6.286;2023-04-15T11:43:13;99376.34;;;22.40
15144;BMP180;7672;50.834;6.286;2023-04-15T11:48:18;99381.94;;;22.31
15144;BMP180;7672;50.834;6.286;2023-04-15T11:50:45;99371.94;;;22.25
15144;BMP180;7672;50.834;6.286;2023-04-15T11:53:12;99376.53;;;22.19
15144;BMP180;7672;50.834;6.286;2023-04-15T11:55:51;99380.38;;;22.10
15144;BMP180;7672;50.834;6.286;2023-04-15T11:58:24;99377.91;;;22.07
15144;BMP180;7672;50.834;6.286;2023-04-15T12:00:58;99389.41;;;22.00
15144;BMP180;7672;50.834;6.286;2023-04-15T12:03:40;99388.88;;;21.94
15144;BMP180;7672;50.834;6.286;2023-04-15T12:06:20;99390.91;;;21.87
15144;BMP180;7672;50.834;6.286;2023-04-15T12:11:50;99391.53;;;21.92
15144;BMP180;7672;50.834;6.286;2023-04-15T12:14:30;99389.69;;;21.94
15144;BMP180;7672;50.834;6.286;2023-04-15T12:17:00;99393.25;;;21.92
15144;BMP180;7672;50.834;6.286;2023-04-15T12:19:41;99396.13;;;21.86
15144;BMP180;7672;50.834;6.286;2023-04-15T12:22:11;99392.16;;;21.79
15144;BMP180;7672;50.834;6.286;2023-04-15T12:24:39;99394.97;;;21.73
15144;BMP180;7672;50.834;6.286;2023-04-15T12:27:09;99395.06;;;21.72
15144;BMP180;7672;50.834;6.286;2023-04-15T12:29:39;99402.84;;;21.70
15144;BMP180;7672;50.834;6.286;2023-04-15T12:32:12;99419.06;;;21.72
15144;BMP180;7672;50.834;6.286;2023-04-15T12:34:50;99414.81;;;21.71
15144;BMP180;7672;50.834;6.286;2023-04-15T12:37:17;99419.09;;;21.71
15144;BMP180;7672;50.834;6.286;2023-04-15T12:39:47;99430.19;;;21.73
15144;BMP180;7672;50.834;6.286;2023-04-15T12:42:15;99422.19;;;21.78
15144;BMP180;7672;50.834;6.286;2023-04-15T12:44:43;99434.50;;;21.90
15144;BMP180;7672;50.834;6.286;2023-04-15T12:47:12;99429.78;;;22.00
15144;BMP180;7672;50.834;6.286;2023-04-15T12:49:39;99441.53;;;22.05
15144;BMP180;7672;50.834;6.286;2023-04-15T12:52:06;99440.53;;;22.08
15144;BMP180;7672;50.834;6.286;2023-04-15T12:54:33;99447.41;;;22.07
15144;BMP180;7672;50.834;6.286;2023-04-15T12:57:01;99453.41;;;22.08
15144;BMP180;7672;50.834;6.286;2023-04-15T12:59:32;99442.56;;;22.01
15144;BMP180;7672;50.834;6.286;2023-04-15T13:01:59;99457.22;;;21.99
15144;BMP180;7672;50.834;6.286;2023-04-15T13:04:26;99460.84;;;21.95
15144;BMP180;7672;50.834;6.286;2023-04-15T13:06:56;99458.69;;;21.86
15144;BMP180;7672;50.834;6.286;2023-04-15T13:09:23;99451.38;;;21.77
15144;BMP180;7672;50.834;6.286;2023-04-15T13:11:50;99461.88;;;21.73
15144;BMP180;7672;50.834;6.286;2023-04-15T13:14:16;99468.91;;;21.70
15144;BMP180;7672;50.834;6.286;2023-04-15T13:16:43;99472.22;;;21.72
15144;BMP180;7672;50.834;6.286;2023-04-15T13:19:10;99471.34;;;21.73
15144;BMP180;7672;50.834;6.286;2023-04-15T13:21:37;99480.41;;;21.81
15144;BMP180;7672;50.834;6.286;2023-04-15T13:24:03;99482.09;;;21.80
15144;BMP180;7672;50.834;6.286;2023-04-15T13:26:32;99487.72;;;21.70
15144;BMP180;7672;50.834;6.286;2023-04-15T13:29:00;99486.91;;;21.50
15144;BMP180;7672;50.834;6.286;2023-04-15T13:31:27;99501.56;;;21.28
15144;BMP180;7672;50.834;6.286;2023-04-15T13:33:55;99508.63;;;21.03
15144;BMP180;7672;50.834;6.286;2023-04-15T13:36:22;99497.47;;;20.83
15144;BMP180;7672;50.834;6.286;2023-04-15T13:38:49;99509.25;;;20.65
15144;BMP180;7672;50.834;6.286;2023-04-15T13:41:17;99511.53;;;20.51
15144;BMP180;7672;50.834;6.286;2023-04-15T13:43:44;99512.75;;;20.43
15144;BMP180;7672;50.834;6.286;2023-04-15T13:46:11;99512.84;;;20.40
15144;BMP180;7672;50.834;6.286;2023-04-15T13:48:38;99508.44;;;20.44
15144;BMP180;7672;50.834;6.286;2023-04-15T13:51:04;99517.03;;;20.43
15144;BMP180;7672;50.834;6.286;2023-04-15T13:53:33;99518.88;;;20.39
15144;BMP180;7672;50.834;6.286;2023-04-15T13:56:08;99515.69;;;20.33
15144;BMP180;7672;50.834;6.286;2023-04-15T13:58:39;99528.94;;;20.22
15144;BMP180;7672;50.834;6.286;2023-04-15T14:01:06;99530.22;;;20.11
15144;BMP180;7672;50.834;6.286;2023-04-15T14:03:34;99536.66;;;19.99
15144;BMP180;7672;50.834;6.286;2023-04-15T14:06:03;99540.44;;;19.88
15144;BMP180;7672;50.834;6.286;2023-04-15T14:08:30;99545.09;;;19.77
15144;BMP180;7672;50.834;6.286;2023-04-15T14:10:57;99550.69;;;19.65
15144;BMP180;7672;50.834;6.286;2023-04-15T14:13:24;99551.13;;;19.52
15144;BMP180;7672;50.834;6.286;2023-04-15T14:15:51;99546.31;;;19.43
15144;BMP180;7672;50.834;6.286;2023-04-15T14:18:17;99556.81;;;19.35
15144;BMP180;7672;50.834;6.286;2023-04-15T14:20:44;99545.31;;;19.23
15144;BMP180;7672;50.834;6.286;2023-04-15T14:23:11;99559.31;;;19.13
15144;BMP180;7672;50.834;6.286;2023-04-15T14:25:38;99562.94;;;19.06
15144;BMP180;7672;50.834;6.286;2023-04-15T14:28:05;99555.50;;;18.98
15144;BMP180;7672;50.834;6.286;2023-04-15T14:30:32;99557.41;;;18.92
15144;BMP180;7672;50.834;6.286;2023-04-15T14:32:59;99562.66;;;18.87
15144;BMP180;7672;50.834;6.286;2023-04-15T14:35:26;99566.97;;;18.87
15144;BMP180;7672;50.834;6.286;2023-04-15T14:37:53;99571.97;;;18.90
15144;BMP180;7672;50.834;6.286;2023-04-15T14:40:21;99577.09;;;18.90
15144;BMP180;7672;50.834;6.286;2023-04-15T14:42:48;99572.91;;;18.87
15144;BMP180;7672;50.834;6.286;2023-04-15T14:45:15;99580.50;;;18.90
15144;BMP180;7672;50.834;6.286;2023-04-15T14:47:43;99586.34;;;18.94
15144;BMP180;7672;50.834;6.286;2023-04-15T14:50:10;99583.66;;;18.98
15144;BMP180;7672;50.834;6.286;2023-04-15T14:52:37;99587.06;;;18.99
15144;BMP180;7672;50.834;6.286;2023-04-15T14:55:11;99593.91;;;18.98